Terminal Aerodrome Forecast
Issued by NWS

Home | Current Version | Previous Version | Text Only | Print | Product List | Glossary On
Versions: 1 2 3 4 5 6 7 8 9 10 11 12 13 14 15 16 17 18 19 20 21 22 23 24 25 26 27
000
FTAK31 PANC 302340
TAFASD
TAF
PASD 302340Z 3100/3124 20011KT P6SM BKN025 BKN045
     FM310700 20010KT 6SM -RA BR SCT015 OVC050
     FM311200 20011KT 4SM -RA BR BKN015 OVC050
      AMD LTD TO CLD VIS AND WIND=

USA.gov is the U.S. government's official web portal to all federal, state and local government web resources and services.